MRLM

Details ICAO MRLM (LIO)
Name LIMON INTL
Region Costa Rica
Timezone Unknown (UTC+0.0)
Plans Departing 12
Arriving 15
Stats Elevation 7 ft / 2 m (AMSL)
Location 9.957959° -83.022006°
Runways 1
Magnetic Variation 2.424° W
Sunrise 2017-12-13 11:41:22 UTC / 2017-12-13 11:41:22 Local
Sunset 2017-12-13 23:14:16 UTC / 2017-12-13 23:14:16 Local
Advertisement - Login to hide

Runways

ID Width Length Bearing (true) Bearing (mag) Surface Threshold Offset Overrun Length
14 98 ft / 30 m 5,897 ft / 1,797 m 146.50° 148.92° Asphalt 0 ft / 0 m 0 ft / 0 m
32 98 ft / 30 m 5,897 ft / 1,797 m 326.50° 328.92° Asphalt 0 ft / 0 m 0 ft / 0 m

Map

Weather


0- 5 10 15 20 25 30 35+ Temperature / ° C

Clouds and Precipitation
Forecast for 2017-12-13 12:00 UTC. Updated 2 hours ago

Ground ~20,000 ft ~40,000 ft Winds

METAR

Not found

TAF

TAF MRLM 122300Z 1300/1324 29010KT 9999 SCT015 TX26/1319Z TN20/1310Z TEMPO 1304/1308 5000 RA BKN010

Frequencies

Tower 118.80 MHz FIS
Warning: Do not use this data for real-world aviation or navigation. No guarantee of current accuracy is given.